sensor_id;sensor_type;location;lat;lon;timestamp;pressure;altitude;pressure_sealevel;temperature;humidity
56594;BME280;42474;51.660;5.824;2023-02-21T00:03:22;102020.0;;;9.9;90.5
56594;BME280;42474;51.660;5.824;2023-02-21T00:08:23;102010.0;;;9.9;91.0
56594;BME280;42474;51.660;5.824;2023-02-21T00:13:23;102010.0;;;9.9;91.0
56594;BME280;42474;51.660;5.824;2023-02-21T00:18:23;102010.0;;;9.9;91.0
56594;BME280;42474;51.660;5.824;2023-02-21T00:23:22;102010.0;;;9.9;91.0
56594;BME280;42474;51.660;5.824;2023-02-21T00:28:23;102010.0;;;9.9;91.0
56594;BME280;42474;51.660;5.824;2023-02-21T00:33:23;102010.0;;;9.9;91.5
56594;BME280;42474;51.660;5.824;2023-02-21T00:38:22;102020.0;;;9.9;91.0
56594;BME280;42474;51.660;5.824;2023-02-21T00:43:26;102020.0;;;9.8;91.0
56594;BME280;42474;51.660;5.824;2023-02-21T00:48:23;102020.0;;;9.8;91.0
56594;BME280;42474;51.660;5.824;2023-02-21T00:53:23;102010.0;;;9.8;91.5
56594;BME280;42474;51.660;5.824;2023-02-21T00:58:22;102010.0;;;9.8;91.5
56594;BME280;42474;51.660;5.824;2023-02-21T01:03:23;102010.0;;;9.8;91.5
56594;BME280;42474;51.660;5.824;2023-02-21T01:08:22;102000.0;;;9.8;91.5
56594;BME280;42474;51.660;5.824;2023-02-21T01:13:23;101990.0;;;9.8;91.5
56594;BME280;42474;51.660;5.824;2023-02-21T01:18:23;102000.0;;;9.7;91.5
56594;BME280;42474;51.660;5.824;2023-02-21T01:23:23;101990.0;;;9.7;92.0
56594;BME280;42474;51.660;5.824;2023-02-21T01:28:23;101980.0;;;9.7;92.0
56594;BME280;42474;51.660;5.824;2023-02-21T01:33:23;101980.0;;;9.7;92.0
56594;BME280;42474;51.660;5.824;2023-02-21T01:38:23;101980.0;;;9.7;92.0
56594;BME280;42474;51.660;5.824;2023-02-21T01:43:25;101980.0;;;9.6;92.0
56594;BME280;42474;51.660;5.824;2023-02-21T01:48:25;101980.0;;;9.6;92.5
56594;BME280;42474;51.660;5.824;2023-02-21T01:53:24;101980.0;;;9.6;92.5
56594;BME280;42474;51.660;5.824;2023-02-21T01:58:24;101980.0;;;9.6;92.5
56594;BME280;42474;51.660;5.824;2023-02-21T02:03:23;101970.0;;;9.6;92.5
56594;BME280;42474;51.660;5.824;2023-02-21T02:08:29;101960.0;;;9.6;92.5
56594;BME280;42474;51.660;5.824;2023-02-21T02:14:36;101960.0;;;9.6;92.5
56594;BME280;42474;51.660;5.824;2023-02-21T02:20:56;101960.0;;;9.6;92.5
56594;BME280;42474;51.660;5.824;2023-02-21T02:27:19;101950.0;;;9.5;92.5
56594;BME280;42474;51.660;5.824;2023-02-21T02:34:57;101950.0;;;9.5;93.0
56594;BME280;42474;51.660;5.824;2023-02-21T02:38:25;101960.0;;;9.6;92.5
56594;BME280;42474;51.660;5.824;2023-02-21T02:43:21;101950.0;;;9.5;93.0
56594;BME280;42474;51.660;5.824;2023-02-21T02:46:31;101950.0;;;9.5;93.0
56594;BME280;42474;51.660;5.824;2023-02-21T02:49:40;101950.0;;;9.5;93.0
56594;BME280;42474;51.660;5.824;2023-02-21T02:53:26;101950.0;;;9.5;93.0
56594;BME280;42474;51.660;5.824;2023-02-21T02:58:24;101950.0;;;9.5;93.5
56594;BME280;42474;51.660;5.824;2023-02-21T03:04:09;101940.0;;;9.5;93.5
56594;BME280;42474;51.660;5.824;2023-02-21T03:09:42;101940.0;;;9.4;93.5
56594;BME280;42474;51.660;5.824;2023-02-21T03:13:39;101940.0;;;9.4;93.5
56594;BME280;42474;51.660;5.824;2023-02-21T03:18:32;101940.0;;;9.4;94.0
56594;BME280;42474;51.660;5.824;2023-02-21T03:23:27;101950.0;;;9.4;93.5
56594;BME280;42474;51.660;5.824;2023-02-21T03:33:23;101940.0;;;9.4;94.0
56594;BME280;42474;51.660;5.824;2023-02-21T03:38:23;101930.0;;;9.4;94.0
56594;BME280;42474;51.660;5.824;2023-02-21T03:43:23;101930.0;;;9.4;94.0
56594;BME280;42474;51.660;5.824;2023-02-21T03:48:23;101940.0;;;9.4;94.5
56594;BME280;42474;51.660;5.824;2023-02-21T03:53:23;101940.0;;;9.4;94.5
56594;BME280;42474;51.660;5.824;2023-02-21T03:58:23;101950.0;;;9.4;94.5
56594;BME280;42474;51.660;5.824;2023-02-21T04:03:23;101940.0;;;9.4;94.5
56594;BME280;42474;51.660;5.824;2023-02-21T04:08:23;101940.0;;;9.4;94.5
56594;BME280;42474;51.660;5.824;2023-02-21T04:13:23;101940.0;;;9.4;94.5
56594;BME280;42474;51.660;5.824;2023-02-21T04:18:23;101930.0;;;9.4;94.5
56594;BME280;42474;51.660;5.824;2023-02-21T04:23:23;101910.0;;;9.4;94.5
56594;BME280;42474;51.660;5.824;2023-02-21T04:28:23;101920.0;;;9.4;94.5
56594;BME280;42474;51.660;5.824;2023-02-21T04:33:23;101920.0;;;9.3;95.0
56594;BME280;42474;51.660;5.824;2023-02-21T04:38:23;101920.0;;;9.4;95.0
56594;BME280;42474;51.660;5.824;2023-02-21T04:43:23;101920.0;;;9.4;95.0
56594;BME280;42474;51.660;5.824;2023-02-21T04:48:23;101920.0;;;9.4;95.0
56594;BME280;42474;51.660;5.824;2023-02-21T04:53:23;101910.0;;;9.4;95.0
56594;BME280;42474;51.660;5.824;2023-02-21T04:58:23;101910.0;;;9.3;95.0
56594;BME280;42474;51.660;5.824;2023-02-21T05:03:23;101920.0;;;9.3;95.0
56594;BME280;42474;51.660;5.824;2023-02-21T05:08:23;101910.0;;;9.3;95.0
56594;BME280;42474;51.660;5.824;2023-02-21T05:13:23;101910.0;;;9.3;95.5
56594;BME280;42474;51.660;5.824;2023-02-21T05:18:23;101910.0;;;9.3;95.5
56594;BME280;42474;51.660;5.824;2023-02-21T05:23:23;101910.0;;;9.3;95.5
56594;BME280;42474;51.660;5.824;2023-02-21T05:28:23;101920.0;;;9.3;95.5
56594;BME280;42474;51.660;5.824;2023-02-21T05:33:23;101910.0;;;9.3;96.0
56594;BME280;42474;51.660;5.824;2023-02-21T05:38:23;101910.0;;;9.3;96.0
56594;BME280;42474;51.660;5.824;2023-02-21T05:43:23;101910.0;;;9.3;96.0
56594;BME280;42474;51.660;5.824;2023-02-21T05:48:23;101920.0;;;9.3;96.0
56594;BME280;42474;51.660;5.824;2023-02-21T05:53:23;101930.0;;;9.3;96.0
56594;BME280;42474;51.660;5.824;2023-02-21T05:58:23;101930.0;;;9.3;96.0
56594;BME280;42474;51.660;5.824;2023-02-21T06:03:23;101930.0;;;9.3;96.5
56594;BME280;42474;51.660;5.824;2023-02-21T06:08:23;101930.0;;;9.3;96.5
56594;BME280;42474;51.660;5.824;2023-02-21T06:13:23;101930.0;;;9.2;96.5
56594;BME280;42474;51.660;5.824;2023-02-21T06:18:23;101930.0;;;9.2;96.5
56594;BME280;42474;51.660;5.824;2023-02-21T06:23:23;101940.0;;;9.2;96.5
56594;BME280;42474;51.660;5.824;2023-02-21T06:28:26;101930.0;;;9.2;96.5
56594;BME280;42474;51.660;5.824;2023-02-21T06:33:23;101930.0;;;9.2;96.5
56594;BME280;42474;51.660;5.824;2023-02-21T06:38:23;101940.0;;;9.2;96.5
56594;BME280;42474;51.660;5.824;2023-02-21T06:43:23;101950.0;;;9.1;97.0
56594;BME280;42474;51.660;5.824;2023-02-21T06:48:23;101950.0;;;9.2;97.0
56594;BME280;42474;51.660;5.824;2023-02-21T06:53:23;101940.0;;;9.2;97.0
56594;BME280;42474;51.660;5.824;2023-02-21T06:58:23;101940.0;;;9.2;97.0
56594;BME280;42474;51.660;5.824;2023-02-21T07:03:23;101940.0;;;9.2;97.0
56594;BME280;42474;51.660;5.824;2023-02-21T07:08:23;101930.0;;;9.2;97.0
56594;BME280;42474;51.660;5.824;2023-02-21T07:13:23;101940.0;;;9.1;96.5
56594;BME280;42474;51.660;5.824;2023-02-21T07:18:23;101950.0;;;9.1;97.0
56594;BME280;42474;51.660;5.824;2023-02-21T07:23:23;101930.0;;;9.1;97.0
56594;BME280;42474;51.660;5.824;2023-02-21T07:28:23;101940.0;;;9.1;97.0
56594;BME280;42474;51.660;5.824;2023-02-21T07:33:23;101960.0;;;9.1;97.0
56594;BME280;42474;51.660;5.824;2023-02-21T07:38:25;101940.0;;;9.1;97.5
56594;BME280;42474;51.660;5.824;2023-02-21T07:43:24;101940.0;;;9.1;97.0
56594;BME280;42474;51.660;5.824;2023-02-21T07:48:23;101950.0;;;9.1;97.0
56594;BME280;42474;51.660;5.824;2023-02-21T07:53:23;101960.0;;;9.1;97.5
56594;BME280;42474;51.660;5.824;2023-02-21T07:58:23;101940.0;;;9.1;97.5
56594;BME280;42474;51.660;5.824;2023-02-21T08:03:23;101950.0;;;9.1;97.0
56594;BME280;42474;51.660;5.824;2023-02-21T08:08:23;101950.0;;;9.1;97.5
56594;BME280;42474;51.660;5.824;2023-02-21T08:13:23;101950.0;;;9.2;97.5
56594;BME280;42474;51.660;5.824;2023-02-21T08:18:24;101960.0;;;9.2;97.0
56594;BME280;42474;51.660;5.824;2023-02-21T08:23:23;101970.0;;;9.2;97.0
56594;BME280;42474;51.660;5.824;2023-02-21T08:28:23;101950.0;;;9.2;97.5
56594;BME280;42474;51.660;5.824;2023-02-21T08:33:23;101950.0;;;9.2;97.5
56594;BME280;42474;51.660;5.824;2023-02-21T08:38:23;101940.0;;;9.3;97.5
56594;BME280;42474;51.660;5.824;2023-02-21T08:43:23;101940.0;;;9.3;97.5
56594;BME280;42474;51.660;5.824;2023-02-21T08:48:23;101940.0;;;9.3;97.5
56594;BME280;42474;51.660;5.824;2023-02-21T08:53:23;101940.0;;;9.3;97.5
56594;BME280;42474;51.660;5.824;2023-02-21T08:58:23;101940.0;;;9.3;97.0
56594;BME280;42474;51.660;5.824;2023-02-21T09:03:23;101930.0;;;9.3;97.0
56594;BME280;42474;51.660;5.824;2023-02-21T09:08:23;101940.0;;;9.4;97.5
56594;BME280;42474;51.660;5.824;2023-02-21T09:13:23;101930.0;;;9.4;97.5
56594;BME280;42474;51.660;5.824;2023-02-21T09:18:23;101930.0;;;9.4;97.0
56594;BME280;42474;51.660;5.824;2023-02-21T09:23:24;101940.0;;;9.5;97.0
56594;BME280;42474;51.660;5.824;2023-02-21T09:28:23;101930.0;;;9.5;97.0
56594;BME280;42474;51.660;5.824;2023-02-21T09:33:23;101930.0;;;9.5;97.0
56594;BME280;42474;51.660;5.824;2023-02-21T09:38:23;101920.0;;;9.5;97.0
56594;BME280;42474;51.660;5.824;2023-02-21T09:43:26;101920.0;;;9.5;97.0
56594;BME280;42474;51.660;5.824;2023-02-21T09:48:23;101920.0;;;9.5;97.0
56594;BME280;42474;51.660;5.824;2023-02-21T09:53:27;101930.0;;;9.6;97.0
56594;BME280;42474;51.660;5.824;2023-02-21T09:58:23;101920.0;;;9.6;97.0
56594;BME280;42474;51.660;5.824;2023-02-21T10:04:19;101920.0;;;9.7;97.0
56594;BME280;42474;51.660;5.824;2023-02-21T10:08:58;101920.0;;;9.7;97.0
56594;BME280;42474;51.660;5.824;2023-02-21T10:13:45;101920.0;;;9.8;97.0
56594;BME280;42474;51.660;5.824;2023-02-21T10:18:45;101920.0;;;9.8;97.0
56594;BME280;42474;51.660;5.824;2023-02-21T10:23:26;101920.0;;;9.9;97.0
56594;BME280;42474;51.660;5.824;2023-02-21T10:28:25;101920.0;;;9.9;97.0
56594;BME280;42474;51.660;5.824;2023-02-21T10:33:23;101920.0;;;9.9;97.0
56594;BME280;42474;51.660;5.824;2023-02-21T10:38:25;101920.0;;;9.9;96.5
56594;BME280;42474;51.660;5.824;2023-02-21T10:43:27;101910.0;;;10.0;96.5
56594;BME280;42474;51.660;5.824;2023-02-21T10:48:35;101920.0;;;10.0;96.5
56594;BME280;42474;51.660;5.824;2023-02-21T10:53:25;101920.0;;;10.1;96.5
56594;BME280;42474;51.660;5.824;2023-02-21T10:58:29;101920.0;;;10.1;96.5
56594;BME280;42474;51.660;5.824;2023-02-21T11:03:23;101930.0;;;10.1;96.5
56594;BME280;42474;51.660;5.824;2023-02-21T11:08:39;101920.0;;;10.1;96.5
56594;BME280;42474;51.660;5.824;2023-02-21T11:13:25;101920.0;;;10.2;96.0
56594;BME280;42474;51.660;5.824;2023-02-21T11:23:30;101900.0;;;10.2;96.0
56594;BME280;42474;51.660;5.824;2023-02-21T11:28:23;101890.0;;;10.2;95.5
56594;BME280;42474;51.660;5.824;2023-02-21T11:33:23;101890.0;;;10.3;95.5
56594;BME280;42474;51.660;5.824;2023-02-21T11:38:35;101880.0;;;10.3;95.5
56594;BME280;42474;51.660;5.824;2023-02-21T11:43:32;101880.0;;;10.3;95.5
56594;BME280;42474;51.660;5.824;2023-02-21T11:48:23;101890.0;;;10.3;95.0
56594;BME280;42474;51.660;5.824;2023-02-21T11:53:28;101880.0;;;10.3;95.0
56594;BME280;42474;51.660;5.824;2023-02-21T11:58:39;101880.0;;;10.4;95.5
56594;BME280;42474;51.660;5.824;2023-02-21T12:04:13;101870.0;;;10.4;95.0
56594;BME280;42474;51.660;5.824;2023-02-21T12:09:15;101870.0;;;10.5;95.0
56594;BME280;42474;51.660;5.824;2023-02-21T12:15:04;101860.0;;;10.5;95.0
56594;BME280;42474;51.660;5.824;2023-02-21T12:21:06;101850.0;;;10.6;95.0
56594;BME280;42474;51.660;5.824;2023-02-21T12:26:56;101860.0;;;10.7;95.0
56594;BME280;42474;51.660;5.824;2023-02-21T12:33:02;101850.0;;;10.8;94.5
56594;BME280;42474;51.660;5.824;2023-02-21T12:38:22;101840.0;;;10.8;94.5
56594;BME280;42474;51.660;5.824;2023-02-21T12:44:05;101840.0;;;10.8;94.0
56594;BME280;42474;51.660;5.824;2023-02-21T12:48:50;101840.0;;;10.8;94.0
56594;BME280;42474;51.660;5.824;2023-02-21T12:51:53;101840.0;;;10.8;93.5
56594;BME280;42474;51.660;5.824;2023-02-21T12:55:24;101840.0;;;10.8;93.5
56594;BME280;42474;51.660;5.824;2023-02-21T12:59:01;101830.0;;;10.8;93.5
56594;BME280;42474;51.660;5.824;2023-02-21T13:04:00;101830.0;;;10.9;93.5
56594;BME280;42474;51.660;5.824;2023-02-21T13:08:27;101820.0;;;10.9;93.0
56594;BME280;42474;51.660;5.824;2023-02-21T13:13:28;101820.0;;;10.9;93.0
56594;BME280;42474;51.660;5.824;2023-02-21T13:18:27;101820.0;;;10.9;92.5
56594;BME280;42474;51.660;5.824;2023-02-21T13:26:22;101810.0;;;10.9;92.5
56594;BME280;42474;51.660;5.824;2023-02-21T13:28:44;101810.0;;;10.9;92.5
56594;BME280;42474;51.660;5.824;2023-02-21T13:33:27;101810.0;;;10.9;92.0
56594;BME280;42474;51.660;5.824;2023-02-21T13:38:24;101800.0;;;10.9;92.0
56594;BME280;42474;51.660;5.824;2023-02-21T13:43:29;101790.0;;;11.0;92.0
56594;BME280;42474;51.660;5.824;2023-02-21T13:48:28;101780.0;;;11.0;91.5
56594;BME280;42474;51.660;5.824;2023-02-21T13:53:32;101780.0;;;11.0;91.5
56594;BME280;42474;51.660;5.824;2023-02-21T13:58:41;101780.0;;;11.0;91.5
56594;BME280;42474;51.660;5.824;2023-02-21T14:03:33;101780.0;;;11.0;91.5
56594;BME280;42474;51.660;5.824;2023-02-21T14:08:25;101770.0;;;11.0;91.5
56594;BME280;42474;51.660;5.824;2023-02-21T14:13:26;101770.0;;;11.0;91.0
56594;BME280;42474;51.660;5.824;2023-02-21T14:18:29;101770.0;;;11.0;91.0
56594;BME280;42474;51.660;5.824;2023-02-21T14:23:30;101770.0;;;10.9;91.0
56594;BME280;42474;51.660;5.824;2023-02-21T14:29:45;101770.0;;;10.9;90.5
56594;BME280;42474;51.660;5.824;2023-02-21T14:33:24;101770.0;;;10.8;90.5
56594;BME280;42474;51.660;5.824;2023-02-21T14:38:26;101770.0;;;10.7;90.5
56594;BME280;42474;51.660;5.824;2023-02-21T14:44:52;101770.0;;;10.7;90.5
56594;BME280;42474;51.660;5.824;2023-02-21T14:57:37;101760.0;;;10.6;90.5
56594;BME280;42474;51.660;5.824;2023-02-21T15:03:04;101760.0;;;10.6;91.0
56594;BME280;42474;51.660;5.824;2023-02-21T15:06:32;101760.0;;;10.6;91.0
56594;BME280;42474;51.660;5.824;2023-02-21T15:08:52;101760.0;;;10.6;91.0
56594;BME280;42474;51.660;5.824;2023-02-21T15:13:25;101750.0;;;10.5;91.0
56594;BME280;42474;51.660;5.824;2023-02-21T15:18:34;101750.0;;;10.4;90.5
56594;BME280;42474;51.660;5.824;2023-02-21T15:23:23;101740.0;;;10.4;90.5
56594;BME280;42474;51.660;5.824;2023-02-21T15:28:31;101740.0;;;10.4;91.0
56594;BME280;42474;51.660;5.824;2023-02-21T15:33:23;101730.0;;;10.4;91.0
56594;BME280;42474;51.660;5.824;2023-02-21T15:38:28;101730.0;;;10.4;91.0
56594;BME280;42474;51.660;5.824;2023-02-21T15:43:40;101740.0;;;10.4;91.0
56594;BME280;42474;51.660;5.824;2023-02-21T15:48:23;101730.0;;;10.4;91.0
56594;BME280;42474;51.660;5.824;2023-02-21T15:53:23;101730.0;;;10.4;91.0
56594;BME280;42474;51.660;5.824;2023-02-21T15:58:24;101730.0;;;10.4;90.5
56594;BME280;42474;51.660;5.824;2023-02-21T16:03:44;101720.0;;;10.3;90.5
56594;BME280;42474;51.660;5.824;2023-02-21T16:08:23;101710.0;;;10.3;90.5
56594;BME280;42474;51.660;5.824;2023-02-21T16:13:23;101710.0;;;10.3;90.5
56594;BME280;42474;51.660;5.824;2023-02-21T16:18:23;101720.0;;;10.3;90.5
56594;BME280;42474;51.660;5.824;2023-02-21T16:23:30;101720.0;;;10.2;90.5
56594;BME280;42474;51.660;5.824;2023-02-21T16:28:23;101720.0;;;10.2;90.5
56594;BME280;42474;51.660;5.824;2023-02-21T16:33:23;101710.0;;;10.1;90.5
56594;BME280;42474;51.660;5.824;2023-02-21T16:38:24;101720.0;;;10.1;90.5
56594;BME280;42474;51.660;5.824;2023-02-21T16:43:25;101720.0;;;10.0;90.5
56594;BME280;42474;51.660;5.824;2023-02-21T16:48:25;101710.0;;;10.0;90.5
56594;BME280;42474;51.660;5.824;2023-02-21T16:53:23;101720.0;;;10.0;90.5
56594;BME280;42474;51.660;5.824;2023-02-21T16:58:28;101720.0;;;9.9;90.5
56594;BME280;42474;51.660;5.824;2023-02-21T17:03:23;101720.0;;;9.9;90.5
56594;BME280;42474;51.660;5.824;2023-02-21T17:08:23;101720.0;;;9.9;90.5
56594;BME280;42474;51.660;5.824;2023-02-21T17:13:23;101720.0;;;9.8;91.0
56594;BME280;42474;51.660;5.824;2023-02-21T17:18:23;101720.0;;;9.8;90.5
56594;BME280;42474;51.660;5.824;2023-02-21T17:23:23;101720.0;;;9.8;90.5
56594;BME280;42474;51.660;5.824;2023-02-21T17:28:23;101720.0;;;9.7;91.0
56594;BME280;42474;51.660;5.824;2023-02-21T17:33:23;101720.0;;;9.7;91.0
56594;BME280;42474;51.660;5.824;2023-02-21T17:38:23;101720.0;;;9.7;91.0
56594;BME280;42474;51.660;5.824;2023-02-21T17:43:23;101720.0;;;9.6;91.0
56594;BME280;42474;51.660;5.824;2023-02-21T17:48:23;101730.0;;;9.6;90.5
56594;BME280;42474;51.660;5.824;2023-02-21T17:53:23;101720.0;;;9.5;91.0
56594;BME280;42474;51.660;5.824;2023-02-21T17:58:23;101720.0;;;9.5;91.0
56594;BME280;42474;51.660;5.824;2023-02-21T18:03:24;101720.0;;;9.5;91.0
56594;BME280;42474;51.660;5.824;2023-02-21T18:08:23;101720.0;;;9.5;91.0
56594;BME280;42474;51.660;5.824;2023-02-21T18:13:23;101710.0;;;9.5;91.0
56594;BME280;42474;51.660;5.824;2023-02-21T18:18:23;101710.0;;;9.5;91.0
56594;BME280;42474;51.660;5.824;2023-02-21T18:23:23;101720.0;;;9.4;91.0
56594;BME280;42474;51.660;5.824;2023-02-21T18:28:24;101720.0;;;9.4;91.0
56594;BME280;42474;51.660;5.824;2023-02-21T18:33:24;101710.0;;;9.3;91.0
56594;BME280;42474;51.660;5.824;2023-02-21T18:38:24;101710.0;;;9.3;91.0
56594;BME280;42474;51.660;5.824;2023-02-21T18:43:25;101720.0;;;9.2;91.0
56594;BME280;42474;51.660;5.824;2023-02-21T18:48:25;101710.0;;;9.2;91.0
56594;BME280;42474;51.660;5.824;2023-02-21T18:53:23;101720.0;;;9.2;91.0
56594;BME280;42474;51.660;5.824;2023-02-21T18:58:23;101710.0;;;9.1;91.0
56594;BME280;42474;51.660;5.824;2023-02-21T19:03:23;101710.0;;;9.1;91.0
56594;BME280;42474;51.660;5.824;2023-02-21T19:08:23;101720.0;;;9.1;91.5
56594;BME280;42474;51.660;5.824;2023-02-21T19:13:23;101710.0;;;9.1;91.5
56594;BME280;42474;51.660;5.824;2023-02-21T19:18:23;101700.0;;;9.1;91.5
56594;BME280;42474;51.660;5.824;2023-02-21T19:23:23;101700.0;;;9.0;91.0
56594;BME280;42474;51.660;5.824;2023-02-21T19:28:23;101700.0;;;9.0;91.0
56594;BME280;42474;51.660;5.824;2023-02-21T19:33:24;101690.0;;;9.0;91.0
56594;BME280;42474;51.660;5.824;2023-02-21T19:38:23;101690.0;;;9.0;91.0
56594;BME280;42474;51.660;5.824;2023-02-21T19:43:23;101690.0;;;8.9;91.0
56594;BME280;42474;51.660;5.824;2023-02-21T19:48:23;101690.0;;;8.9;91.0
56594;BME280;42474;51.660;5.824;2023-02-21T19:53:23;101680.0;;;8.9;91.0
56594;BME280;42474;51.660;5.824;2023-02-21T19:58:23;101670.0;;;8.9;91.0
56594;BME280;42474;51.660;5.824;2023-02-21T20:03:23;101680.0;;;8.9;91.0
56594;BME280;42474;51.660;5.824;2023-02-21T20:08:23;101680.0;;;8.8;91.0
56594;BME280;42474;51.660;5.824;2023-02-21T20:13:24;101680.0;;;8.8;91.0
56594;BME280;42474;51.660;5.824;2023-02-21T20:18:23;101670.0;;;8.8;91.0
56594;BME280;42474;51.660;5.824;2023-02-21T20:23:23;101670.0;;;8.8;91.0
56594;BME280;42474;51.660;5.824;2023-02-21T20:28:23;101660.0;;;8.7;91.0
56594;BME280;42474;51.660;5.824;2023-02-21T20:33:23;101660.0;;;8.7;91.0
56594;BME280;42474;51.660;5.824;2023-02-21T20:38:23;101650.0;;;8.7;91.0
56594;BME280;42474;51.660;5.824;2023-02-21T20:43:23;101640.0;;;8.7;91.0
56594;BME280;42474;51.660;5.824;2023-02-21T20:48:23;101640.0;;;8.7;91.0
56594;BME280;42474;51.660;5.824;2023-02-21T20:53:23;101640.0;;;8.7;91.0
56594;BME280;42474;51.660;5.824;2023-02-21T20:58:23;101640.0;;;8.6;91.0
56594;BME280;42474;51.660;5.824;2023-02-21T21:03:23;101640.0;;;8.6;91.0
56594;BME280;42474;51.660;5.824;2023-02-21T21:08:23;101640.0;;;8.6;91.5
56594;BME280;42474;51.660;5.824;2023-02-21T21:13:23;101630.0;;;8.6;91.0
56594;BME280;42474;51.660;5.824;2023-02-21T21:18:23;101640.0;;;8.6;90.5
56594;BME280;42474;51.660;5.824;2023-02-21T21:23:23;101640.0;;;8.5;90.5
56594;BME280;42474;51.660;5.824;2023-02-21T21:28:23;101640.0;;;8.5;90.5
56594;BME280;42474;51.660;5.824;2023-02-21T21:33:23;101630.0;;;8.5;90.5
56594;BME280;42474;51.660;5.824;2023-02-21T21:38:23;101630.0;;;8.5;90.5
56594;BME280;42474;51.660;5.824;2023-02-21T21:43:24;101630.0;;;8.5;90.5
56594;BME280;42474;51.660;5.824;2023-02-21T21:48:23;101620.0;;;8.5;90.5
56594;BME280;42474;51.660;5.824;2023-02-21T21:53:23;101620.0;;;8.5;90.5
56594;BME280;42474;51.660;5.824;2023-02-21T21:58:23;101620.0;;;8.5;90.5
56594;BME280;42474;51.660;5.824;2023-02-21T22:03:23;101610.0;;;8.4;90.5
56594;BME280;42474;51.660;5.824;2023-02-21T22:08:23;101590.0;;;8.4;90.5
56594;BME280;42474;51.660;5.824;2023-02-21T22:13:23;101600.0;;;8.4;90.5
56594;BME280;42474;51.660;5.824;2023-02-21T22:18:23;101590.0;;;8.3;90.5
56594;BME280;42474;51.660;5.824;2023-02-21T22:23:23;101590.0;;;8.3;90.0
56594;BME280;42474;51.660;5.824;2023-02-21T22:28:23;101570.0;;;8.2;90.0
56594;BME280;42474;51.660;5.824;2023-02-21T22:33:23;101550.0;;;8.2;90.0
56594;BME280;42474;51.660;5.824;2023-02-21T22:38:23;101560.0;;;8.2;90.0
56594;BME280;42474;51.660;5.824;2023-02-21T22:43:23;101550.0;;;8.2;90.5
56594;BME280;42474;51.660;5.824;2023-02-21T22:48:23;101540.0;;;8.2;90.5
56594;BME280;42474;51.660;5.824;2023-02-21T22:53:23;101540.0;;;8.2;90.5
56594;BME280;42474;51.660;5.824;2023-02-21T22:58:23;101530.0;;;8.2;90.5
56594;BME280;42474;51.660;5.824;2023-02-21T23:03:23;101520.0;;;8.2;90.5
56594;BME280;42474;51.660;5.824;2023-02-21T23:08:23;101520.0;;;8.2;90.5
56594;BME280;42474;51.660;5.824;2023-02-21T23:13:24;101510.0;;;8.2;90.5
56594;BME280;42474;51.660;5.824;2023-02-21T23:18:24;101510.0;;;8.2;90.5
56594;BME280;42474;51.660;5.824;2023-02-21T23:23:26;101500.0;;;8.2;90.5
56594;BME280;42474;51.660;5.824;2023-02-21T23:28:25;101500.0;;;8.2;90.5
56594;BME280;42474;51.660;5.824;2023-02-21T23:33:26;101510.0;;;8.2;90.5
56594;BME280;42474;51.660;5.824;2023-02-21T23:38:25;101500.0;;;8.2;90.5
56594;BME280;42474;51.660;5.824;2023-02-21T23:43:25;101500.0;;;8.1;90.5
56594;BME280;42474;51.660;5.824;2023-02-21T23:48:23;101500.0;;;8.1;91.0
56594;BME280;42474;51.660;5.824;2023-02-21T23:53:25;101490.0;;;8.2;91.0
56594;BME280;42474;51.660;5.824;2023-02-21T23:58:26;101480.0;;;8.1;91.0
